Time;durP1;ratioP1;P1;durP2;ratioP2;P2;SDS_P1;SDS_P2;PMS_P1;PMS_P2;Temp;Humidity;BMP_temperature;BMP_pressure;BME280_temperature;BME280_humidity;BME280_pressure;Samples;Min_cycle;Max_cycle;Signal;HPM_P1;HPM_P2
2023/05/09 00:00:11;;;;;;;2.72;0.70;;;19.80;76.40;;;;;;6215823;23;20059;-69
2023/05/09 00:02:38;;;;;;;0.20;0.20;;;19.80;76.40;;;;;;6215420;23;20047;-69
2023/05/09 00:05:04;;;;;;;0.30;0.30;;;19.80;76.50;;;;;;6164481;23;20027;-69
2023/05/09 00:07:30;;;;;;;0.40;0.30;;;19.80;76.60;;;;;;6216013;23;20005;-69
2023/05/09 00:09:56;;;;;;;0.40;0.40;;;19.80;76.80;;;;;;6215889;23;20036;-69
2023/05/09 00:12:22;;;;;;;0.30;0.28;;;19.70;76.80;;;;;;6216055;23;20004;-69
2023/05/09 00:14:50;;;;;;;0.30;0.30;;;19.80;76.90;;;;;;6214607;23;20086;-69
2023/05/09 00:17:17;;;;;;;0.65;0.30;;;19.70;76.90;;;;;;6215742;23;20025;-69
2023/05/09 00:19:43;;;;;;;0.90;0.55;;;19.70;76.90;;;;;;6215835;23;20072;-69
2023/05/09 00:22:11;;;;;;;0.63;0.30;;;19.70;76.90;;;;;;6214617;23;20000;-69
2023/05/09 00:24:37;;;;;;;0.73;0.40;;;19.70;76.90;;;;;;6214234;23;19997;-69
2023/05/09 00:27:03;;;;;;;0.32;0.30;;;19.70;76.90;;;;;;6215926;23;20054;-69
2023/05/09 00:29:29;;;;;;;1.55;0.40;;;19.70;77.00;;;;;;6214538;23;20036;-69
2023/05/09 00:31:55;;;;;;;0.35;0.22;;;19.70;77.00;;;;;;6214125;23;20439;-69
2023/05/09 00:34:20;;;;;;;0.28;0.20;;;19.70;77.00;;;;;;6214262;23;20011;-69
2023/05/09 00:36:46;;;;;;;2.35;0.30;;;19.70;76.90;;;;;;6215715;23;20012;-69
2023/05/09 00:39:12;;;;;;;0.20;0.20;;;19.70;77.00;;;;;;6215611;23;20011;-69
2023/05/09 00:41:37;;;;;;;0.30;0.22;;;19.70;77.10;;;;;;6215595;23;20071;-69
2023/05/09 00:44:03;;;;;;;0.25;0.25;;;19.70;77.20;;;;;;6214394;23;20000;-69
2023/05/09 00:46:29;;;;;;;0.25;0.20;;;19.70;77.10;;;;;;6215194;23;20004;-69
2023/05/09 00:48:55;;;;;;;0.68;0.30;;;19.70;77.10;;;;;;6214279;23;20071;-69
2023/05/09 00:51:21;;;;;;;0.40;0.20;;;19.70;78.10;;;;;;6215906;23;20080;-69
2023/05/09 00:53:46;;;;;;;0.45;0.20;;;19.70;77.20;;;;;;6189176;23;20009;-69
2023/05/09 00:56:12;;;;;;;1.02;0.20;;;19.70;77.10;;;;;;6215568;23;20005;-69
2023/05/09 00:58:38;;;;;;;0.20;0.20;;;19.70;77.10;;;;;;6213987;23;20044;-69
2023/05/09 01:01:03;;;;;;;0.70;0.40;;;19.70;77.10;;;;;;6215079;23;20004;-69
2023/05/09 01:03:30;;;;;;;0.22;0.22;;;19.70;77.20;;;;;;6215551;23;20008;-69
2023/05/09 01:06:00;;;;;;;0.30;0.30;;;19.70;77.10;;;;;;6213721;23;20013;-69
2023/05/09 01:08:48;;;;;;;0.40;0.30;;;19.70;77.10;;;;;;6189666;23;20078;-69
2023/05/09 01:11:52;;;;;;;2.08;0.60;;;19.70;77.00;;;;;;6215284;23;20000;-69
2023/05/09 01:14:29;;;;;;;0.47;0.30;;;19.70;77.10;;;;;;6105483;23;20006;-69
2023/05/09 01:17:04;;;;;;;0.88;0.43;;;19.70;77.20;;;;;;6122289;23;20013;-69
2023/05/09 01:19:52;;;;;;;0.45;0.30;;;19.70;77.10;;;;;;6123198;23;20016;-69
2023/05/09 01:22:18;;;;;;;0.20;0.20;;;19.70;77.00;;;;;;6123424;23;20010;-69
2023/05/09 01:24:44;;;;;;;0.40;0.30;;;19.70;77.00;;;;;;6123427;23;20431;-69
2023/05/09 01:27:35;;;;;;;0.60;0.30;;;19.70;77.00;;;;;;6123450;23;20005;-69
2023/05/09 01:30:02;;;;;;;0.10;0.10;;;19.60;77.10;;;;;;6123218;23;20379;-69
2023/05/09 01:32:28;;;;;;;1.00;0.40;;;19.70;77.10;;;;;;6123037;23;20010;-69
2023/05/09 01:34:54;;;;;;;0.20;0.20;;;19.70;78.20;;;;;;6123351;23;20097;-69
2023/05/09 01:37:29;;;;;;;0.20;0.20;;;19.60;77.10;;;;;;6123384;23;20014;-69
2023/05/09 01:39:56;;;;;;;0.10;0.10;;;19.70;77.20;;;;;;6123156;23;20060;-69
2023/05/09 01:42:21;;;;;;;0.60;0.40;;;19.60;77.20;;;;;;6123286;23;20001;-69
2023/05/09 01:44:47;;;;;;;1.55;0.22;;;19.60;77.20;;;;;;6122839;23;20347;-69
2023/05/09 01:47:15;;;;;;;0.40;0.40;;;19.60;77.10;;;;;;6123064;23;20347;-69
2023/05/09 01:49:40;;;;;;;2.10;0.30;;;19.60;77.20;;;;;;6161613;23;20009;-69
2023/05/09 01:52:08;;;;;;;0.82;0.20;;;19.60;77.20;;;;;;6188720;23;20072;-69
2023/05/09 01:54:34;;;;;;;1.13;0.50;;;19.60;77.20;;;;;;6213365;23;20054;-69
2023/05/09 01:56:59;;;;;;;0.20;0.20;;;19.60;77.20;;;;;;6213640;23;20008;-70
2023/05/09 01:59:26;;;;;;;0.40;0.20;;;19.60;77.30;;;;;;6188035;23;20027;-69
2023/05/09 02:01:53;;;;;;;0.40;0.40;;;19.60;77.30;;;;;;6214811;23;19996;-69
2023/05/09 02:04:19;;;;;;;0.55;0.40;;;19.60;77.30;;;;;;6189053;23;20036;-70
2023/05/09 02:06:45;;;;;;;0.75;0.30;;;19.60;77.30;;;;;;6213289;23;20017;-69
2023/05/09 02:09:10;;;;;;;0.63;0.25;;;19.60;77.30;;;;;;6213480;23;20001;-69
2023/05/09 02:11:36;;;;;;;0.32;0.20;;;19.60;77.40;;;;;;6188399;23;20507;-70
2023/05/09 02:14:02;;;;;;;0.52;0.20;;;19.60;77.40;;;;;;6213052;23;20012;-69
2023/05/09 02:16:28;;;;;;;0.30;0.30;;;19.60;77.40;;;;;;6214772;23;20000;-69
2023/05/09 02:18:54;;;;;;;0.30;0.30;;;19.60;77.40;;;;;;6188495;23;20440;-69
2023/05/09 02:21:20;;;;;;;0.30;0.30;;;19.60;77.40;;;;;;6214750;23;19996;-69
2023/05/09 02:23:45;;;;;;;0.10;0.10;;;19.60;77.40;;;;;;6214540;23;20004;-69
2023/05/09 02:26:11;;;;;;;0.30;0.30;;;19.60;77.40;;;;;;6214835;23;19996;-69
2023/05/09 02:28:36;;;;;;;0.28;0.28;;;19.60;77.50;;;;;;6187897;23;20009;-69
2023/05/09 02:31:02;;;;;;;0.22;0.22;;;19.50;77.40;;;;;;6187988;23;20499;-69
2023/05/09 02:33:28;;;;;;;0.93;0.17;;;19.50;77.50;;;;;;6213303;23;20004;-70
2023/05/09 02:35:54;;;;;;;0.40;0.40;;;19.50;77.50;;;;;;6213118;23;20001;-69
2023/05/09 02:38:20;;;;;;;0.57;0.32;;;19.50;77.50;;;;;;6213157;23;20005;-70
2023/05/09 02:40:46;;;;;;;0.50;0.30;;;19.50;77.50;;;;;;6187956;23;20007;-69
2023/05/09 02:43:11;;;;;;;0.35;0.30;;;19.50;77.60;;;;;;6188268;23;20068;-70
2023/05/09 02:45:37;;;;;;;0.32;0.22;;;19.50;77.60;;;;;;6212963;23;20366;-69
2023/05/09 02:48:03;;;;;;;3.58;0.40;;;19.50;77.70;;;;;;6214528;23;20031;-70
2023/05/09 02:50:29;;;;;;;0.68;0.40;;;19.50;77.60;;;;;;6214882;23;20321;-69
2023/05/09 02:52:54;;;;;;;1.30;0.50;;;19.50;77.80;;;;;;6214971;23;20000;-69
2023/05/09 02:55:20;;;;;;;0.88;0.30;;;19.50;77.70;;;;;;6215070;23;20001;-69
2023/05/09 02:57:46;;;;;;;1.85;0.50;;;19.50;77.70;;;;;;6214983;23;20005;-69
2023/05/09 03:00:13;;;;;;;0.98;0.47;;;19.50;77.80;;;;;;6214776;23;20345;-69
2023/05/09 03:02:38;;;;;;;2.83;0.25;;;19.50;77.70;;;;;;6215016;23;20079;-70
2023/05/09 03:05:04;;;;;;;1.45;0.30;;;19.50;77.70;;;;;;6214747;23;20467;-69
2023/05/09 03:07:30;;;;;;;2.53;0.45;;;19.50;77.80;;;;;;6213801;23;20008;-69
2023/05/09 03:09:56;;;;;;;1.05;0.30;;;19.50;77.70;;;;;;6214678;23;20031;-69
2023/05/09 03:12:21;;;;;;;1.27;0.35;;;19.50;77.80;;;;;;6213415;23;20032;-70
2023/05/09 03:14:47;;;;;;;1.08;0.40;;;19.50;77.80;;;;;;6215326;23;20001;-69
2023/05/09 03:17:16;;;;;;;0.82;0.30;;;19.50;77.90;;;;;;6215065;23;20005;-69
2023/05/09 03:19:41;;;;;;;1.83;0.30;;;19.50;77.90;;;;;;6214708;23;20005;-70
2023/05/09 03:22:07;;;;;;;1.02;0.50;;;19.50;77.90;;;;;;6213838;23;20001;-70
2023/05/09 03:24:33;;;;;;;0.82;0.40;;;19.50;77.90;;;;;;6214761;23;20023;-70
2023/05/09 03:26:58;;;;;;;0.45;0.40;;;19.50;77.90;;;;;;6213608;23;20463;-70
2023/05/09 03:29:24;;;;;;;3.03;0.47;;;19.50;77.90;;;;;;6215058;23;20456;-69
2023/05/09 03:31:50;;;;;;;2.42;0.50;;;19.50;77.90;;;;;;6215235;23;20445;-69
2023/05/09 03:34:16;;;;;;;0.43;0.30;;;19.50;77.90;;;;;;6188784;23;20001;-69
2023/05/09 03:36:42;;;;;;;1.35;0.38;;;19.50;77.90;;;;;;6215254;23;20012;-69
2023/05/09 03:39:08;;;;;;;0.40;0.40;;;19.50;77.90;;;;;;6213099;23;20005;-69
2023/05/09 03:41:35;;;;;;;1.65;0.50;;;19.50;77.90;;;;;;6214863;23;20004;-69
2023/05/09 03:44:01;;;;;;;3.08;0.52;;;19.50;78.40;;;;;;6215422;23;19997;-69
2023/05/09 03:46:26;;;;;;;1.95;0.38;;;19.50;77.90;;;;;;6215447;23;20001;-69
2023/05/09 03:48:52;;;;;;;2.38;0.50;;;19.50;77.90;;;;;;6216726;23;20001;-69
2023/05/09 03:51:17;;;;;;;1.13;0.55;;;19.50;78.00;;;;;;6216709;23;20004;-69
2023/05/09 03:53:45;;;;;;;1.55;0.40;;;19.50;78.00;;;;;;6216392;23;20005;-69
2023/05/09 03:56:11;;;;;;;1.38;0.55;;;19.50;78.00;;;;;;6190658;23;20341;-69
2023/05/09 03:58:37;;;;;;;2.10;0.45;;;19.50;78.00;;;;;;6215012;23;20084;-69
2023/05/09 04:01:02;;;;;;;1.10;0.50;;;19.40;78.00;;;;;;6216847;23;20008;-69
2023/05/09 04:03:28;;;;;;;1.00;0.50;;;19.40;78.00;;;;;;6216903;23;19996;-70
2023/05/09 04:05:54;;;;;;;1.00;0.50;;;19.40;78.00;;;;;;6215060;23;20009;-69
2023/05/09 04:08:19;;;;;;;0.60;0.50;;;19.40;78.00;;;;;;6190133;23;20005;-69
2023/05/09 04:10:45;;;;;;;1.10;0.60;;;19.40;77.90;;;;;;6215103;23;20027;-69
2023/05/09 04:13:11;;;;;;;0.85;0.60;;;19.40;78.00;;;;;;6216507;23;20000;-69
2023/05/09 04:15:36;;;;;;;2.17;0.73;;;19.40;78.00;;;;;;6216712;23;19996;-69
2023/05/09 04:18:02;;;;;;;2.10;0.60;;;19.40;77.90;;;;;;6215324;23;20001;-69
2023/05/09 04:20:28;;;;;;;0.52;0.50;;;19.40;78.00;;;;;;6216504;23;20333;-69
2023/05/09 04:22:53;;;;;;;1.17;0.60;;;19.40;78.00;;;;;;6216236;23;20456;-69
2023/05/09 04:25:19;;;;;;;0.50;0.50;;;19.40;78.00;;;;;;6216236;23;20008;-69
2023/05/09 04:27:45;;;;;;;2.10;0.80;;;19.40;78.00;;;;;;6216710;23;20001;-69
2023/05/09 04:30:11;;;;;;;0.50;0.50;;;19.40;78.00;;;;;;6190222;23;20032;-70
2023/05/09 04:32:37;;;;;;;1.42;0.65;;;19.40;78.00;;;;;;6216484;23;20078;-70
2023/05/09 04:35:04;;;;;;;0.50;0.50;;;19.40;78.00;;;;;;6216512;23;20007;-69
2023/05/09 04:37:31;;;;;;;0.77;0.50;;;19.40;78.00;;;;;;6216363;23;20004;-69
2023/05/09 04:39:57;;;;;;;3.75;0.88;;;19.40;78.10;;;;;;6216184;23;20500;-69
2023/05/09 04:42:23;;;;;;;1.02;0.60;;;19.30;78.10;;;;;;6214992;23;20084;-69
2023/05/09 04:44:48;;;;;;;1.17;0.60;;;19.40;78.10;;;;;;6216249;23;20024;-69
2023/05/09 04:47:14;;;;;;;1.25;0.60;;;19.40;78.20;;;;;;6216348;23;20039;-69
2023/05/09 04:49:39;;;;;;;0.85;0.70;;;19.40;78.20;;;;;;6214935;23;20386;-69
2023/05/09 04:52:05;;;;;;;0.50;0.50;;;19.30;78.20;;;;;;6215715;23;20005;-69
2023/05/09 04:54:31;;;;;;;0.90;0.70;;;19.30;78.20;;;;;;6214757;23;20011;-69
2023/05/09 04:56:57;;;;;;;0.90;0.70;;;19.30;78.20;;;;;;6214804;23;20004;-69
2023/05/09 04:59:22;;;;;;;0.65;0.65;;;19.30;78.20;;;;;;6214613;23;20007;-69
2023/05/09 05:01:48;;;;;;;1.52;0.80;;;19.40;78.20;;;;;;6215819;23;20028;-69
2023/05/09 05:04:14;;;;;;;1.85;0.80;;;19.30;78.30;;;;;;6216201;23;20028;-69
2023/05/09 05:06:39;;;;;;;2.63;0.70;;;19.40;78.60;;;;;;6215851;23;20341;-69
2023/05/09 05:09:05;;;;;;;3.90;0.73;;;19.30;78.50;;;;;;6216049;23;20345;-69
2023/05/09 05:11:31;;;;;;;1.10;0.85;;;19.30;78.50;;;;;;6216094;23;20011;-69
2023/05/09 05:13:56;;;;;;;1.70;0.80;;;19.30;78.50;;;;;;6215924;23;20015;-69
2023/05/09 05:16:22;;;;;;;0.70;0.60;;;19.30;78.50;;;;;;6216208;23;20000;-69
2023/05/09 05:18:48;;;;;;;1.10;0.80;;;19.40;78.50;;;;;;6215900;23;20008;-69
2023/05/09 05:21:15;;;;;;;1.90;0.77;;;19.30;78.50;;;;;;6215539;23;20008;-69
2023/05/09 05:23:40;;;;;;;1.35;0.57;;;19.30;78.50;;;;;;6216342;23;20123;-69
2023/05/09 05:26:06;;;;;;;3.08;0.95;;;19.30;78.60;;;;;;6215763;23;20032;-69
2023/05/09 05:28:32;;;;;;;2.25;0.80;;;19.30;78.60;;;;;;6215890;23;20004;-69
2023/05/09 05:30:57;;;;;;;1.10;0.82;;;19.30;78.60;;;;;;6215862;23;20005;-69
2023/05/09 05:33:23;;;;;;;1.30;0.75;;;19.30;78.60;;;;;;6216031;23;20004;-69
2023/05/09 05:35:48;;;;;;;1.42;0.90;;;19.30;78.60;;;;;;6215523;23;20175;-69
2023/05/09 05:38:14;;;;;;;1.05;0.70;;;19.30;78.60;;;;;;6215761;23;20007;-69
2023/05/09 05:40:40;;;;;;;2.72;0.70;;;19.30;78.60;;;;;;6215787;23;20068;-69
2023/05/09 05:43:05;;;;;;;1.92;0.90;;;19.30;78.60;;;;;;6215887;23;20075;-69
2023/05/09 05:45:31;;;;;;;0.80;0.60;;;19.30;78.70;;;;;;6214552;23;20067;-69
2023/05/09 05:47:57;;;;;;;2.88;0.75;;;19.30;78.80;;;;;;6214851;23;19996;-69
2023/05/09 05:50:22;;;;;;;1.08;0.70;;;19.30;78.70;;;;;;6214608;23;20012;-69
2023/05/09 05:52:48;;;;;;;2.97;0.90;;;19.30;78.60;;;;;;6214764;23;20008;-69
2023/05/09 05:55:13;;;;;;;2.47;0.68;;;19.30;78.70;;;;;;6188400;23;20083;-69
2023/05/09 05:57:39;;;;;;;1.58;0.70;;;19.30;78.60;;;;;;6214764;23;20028;-69
2023/05/09 06:00:13;;;;;;;0.65;0.55;;;19.30;76.30;;;;;;6214688;23;20008;-69
2023/05/09 06:02:43;;;;;;;0.93;0.80;;;19.30;76.20;;;;;;6214803;23;20000;-69
2023/05/09 06:05:10;;;;;;;2.40;0.70;;;19.20;76.20;;;;;;6212763;23;20007;-69
2023/05/09 06:07:35;;;;;;;1.55;0.68;;;19.20;76.50;;;;;;6188617;23;20000;-69
2023/05/09 06:10:01;;;;;;;0.93;0.68;;;19.20;76.50;;;;;;6212865;23;20036;-69
2023/05/09 06:12:27;;;;;;;2.03;0.50;;;19.20;76.50;;;;;;6215420;23;20005;-69
2023/05/09 06:14:52;;;;;;;1.27;0.88;;;19.20;76.60;;;;;;6215652;23;20008;-69
2023/05/09 06:17:18;;;;;;;1.20;0.98;;;19.20;76.40;;;;;;6214343;23;20005;-69
2023/05/09 06:19:43;;;;;;;0.65;0.50;;;19.20;76.40;;;;;;6214372;23;20008;-69
2023/05/09 06:22:10;;;;;;;0.50;0.50;;;19.10;76.30;;;;;;6214883;23;19996;-69
2023/05/09 06:24:35;;;;;;;0.65;0.65;;;19.20;76.30;;;;;;6213091;23;20315;-69
2023/05/09 06:27:01;;;;;;;2.05;1.13;;;19.10;76.20;;;;;;6214545;23;20046;-69
2023/05/09 06:29:26;;;;;;;1.13;0.60;;;19.10;76.20;;;;;;6188402;23;20001;-69
2023/05/09 06:31:52;;;;;;;1.90;0.80;;;19.10;76.20;;;;;;6214687;23;20051;-69
2023/05/09 06:34:18;;;;;;;2.72;0.80;;;19.10;76.20;;;;;;6214385;23;20004;-69
2023/05/09 06:36:43;;;;;;;1.27;0.60;;;19.10;76.20;;;;;;6214733;23;20035;-69
2023/05/09 06:39:09;;;;;;;1.98;0.60;;;19.10;76.30;;;;;;6212380;23;20345;-68
2023/05/09 06:41:35;;;;;;;2.60;0.80;;;19.10;76.40;;;;;;6213325;23;19997;-68
2023/05/09 06:44:01;;;;;;;3.42;1.17;;;19.10;76.50;;;;;;6213139;23;20106;-68
2023/05/09 06:46:27;;;;;;;4.82;1.48;;;19.10;77.10;;;;;;6213304;23;20062;-68
2023/05/09 06:48:53;;;;;;;3.72;1.45;;;19.00;77.40;;;;;;6213124;23;20372;-68
2023/05/09 06:51:18;;;;;;;6.65;1.23;;;19.10;77.40;;;;;;6212933;23;20050;-68
2023/05/09 06:53:44;;;;;;;4.10;1.10;;;19.10;77.20;;;;;;6213414;23;20058;-68
2023/05/09 06:56:10;;;;;;;3.08;1.13;;;19.00;77.00;;;;;;6214427;23;20004;-68
2023/05/09 06:58:35;;;;;;;1.52;1.10;;;19.00;77.00;;;;;;6212857;23;20032;-68
2023/05/09 07:01:01;;;;;;;2.78;1.13;;;19.00;76.90;;;;;;6213788;23;19997;-68
2023/05/09 07:03:27;;;;;;;2.97;1.30;;;19.00;76.80;;;;;;6211872;23;19997;-68
2023/05/09 07:05:54;;;;;;;6.95;0.98;;;19.00;76.80;;;;;;6214309;23;20016;-68
2023/05/09 07:08:19;;;;;;;2.25;0.93;;;19.00;76.80;;;;;;6214526;23;19997;-68
2023/05/09 07:10:45;;;;;;;2.10;0.90;;;19.00;76.80;;;;;;6214434;23;20051;-68
2023/05/09 07:13:11;;;;;;;2.10;1.08;;;19.00;76.80;;;;;;6188102;23;20001;-68
2023/05/09 07:15:36;;;;;;;3.22;1.25;;;19.00;76.70;;;;;;6214902;23;20003;-68
2023/05/09 07:18:02;;;;;;;4.82;1.02;;;19.00;76.70;;;;;;6216161;23;19997;-68
2023/05/09 07:20:28;;;;;;;2.53;1.30;;;19.00;76.70;;;;;;6216231;23;20341;-68
2023/05/09 07:22:53;;;;;;;1.67;1.45;;;19.00;76.60;;;;;;6216302;23;20007;-68
2023/05/09 07:25:19;;;;;;;1.08;0.63;;;19.00;76.60;;;;;;6216224;23;20003;-68
2023/05/09 07:27:44;;;;;;;3.22;1.00;;;19.00;76.60;;;;;;6214892;23;19997;-68
2023/05/09 07:30:10;;;;;;;4.55;1.20;;;19.00;76.60;;;;;;6216217;23;20026;-68
2023/05/09 07:32:36;;;;;;;3.72;1.00;;;19.00;76.60;;;;;;6214453;23;20437;-69
2023/05/09 07:35:02;;;;;;;1.38;0.98;;;18.90;76.50;;;;;;6216182;23;20440;-68
2023/05/09 07:37:27;;;;;;;1.63;1.05;;;18.90;76.50;;;;;;6216396;23;20017;-68
2023/05/09 07:39:53;;;;;;;6.22;1.13;;;18.90;76.50;;;;;;6216017;23;20005;-68
2023/05/09 07:42:19;;;;;;;1.77;1.00;;;18.90;76.50;;;;;;6216188;23;20058;-68
2023/05/09 07:44:44;;;;;;;4.18;0.90;;;18.90;76.50;;;;;;6216191;23;20051;-68
2023/05/09 07:47:10;;;;;;;2.38;1.13;;;18.90;76.50;;;;;;6214431;23;20074;-68
2023/05/09 07:49:36;;;;;;;3.20;1.10;;;18.90;76.40;;;;;;6216308;23;20008;-68
2023/05/09 07:52:01;;;;;;;4.25;1.13;;;18.90;76.40;;;;;;6214373;23;20494;-68
2023/05/09 07:54:27;;;;;;;2.53;1.05;;;18.90;76.40;;;;;;6216033;23;20055;-68
2023/05/09 07:56:53;;;;;;;3.15;1.20;;;18.90;76.40;;;;;;6214811;23;20067;-68
2023/05/09 07:59:19;;;;;;;1.20;0.95;;;18.90;76.40;;;;;;6214433;23;20000;-69
2023/05/09 08:01:44;;;;;;;2.63;0.80;;;18.90;76.40;;;;;;6215861;23;20345;-68
2023/05/09 08:04:10;;;;;;;1.33;0.90;;;18.90;76.40;;;;;;6215713;23;20004;-68
2023/05/09 08:06:36;;;;;;;1.20;0.95;;;18.90;76.40;;;;;;6215836;23;20016;-68
2023/05/09 08:09:03;;;;;;;2.00;1.33;;;18.90;76.40;;;;;;6214506;23;20440;-69
2023/05/09 08:11:31;;;;;;;2.88;0.80;;;18.90;76.40;;;;;;6190002;23;20005;-68
2023/05/09 08:13:56;;;;;;;0.75;0.73;;;18.90;76.40;;;;;;6214451;23;20008;-68
2023/05/09 08:16:22;;;;;;;1.45;0.93;;;18.90;76.40;;;;;;6215426;23;20039;-68
2023/05/09 08:18:48;;;;;;;2.05;1.20;;;18.90;76.40;;;;;;6215756;23;20368;-68
2023/05/09 08:21:13;;;;;;;1.33;0.80;;;18.80;76.30;;;;;;6215725;23;20334;-68
2023/05/09 08:23:40;;;;;;;3.65;1.23;;;18.80;76.30;;;;;;6215916;23;20024;-68
2023/05/09 08:26:05;;;;;;;2.78;1.13;;;18.80;76.30;;;;;;6215733;23;19996;-68
2023/05/09 08:28:31;;;;;;;1.70;0.85;;;18.80;76.30;;;;;;6214170;23;20000;-68
2023/05/09 08:30:57;;;;;;;2.78;0.88;;;18.80;76.30;;;;;;6215690;23;20001;-68
2023/05/09 08:33:22;;;;;;;2.65;0.90;;;18.80;76.30;;;;;;6215638;23;20005;-68
2023/05/09 08:35:55;;;;;;;1.27;0.90;;;18.80;76.30;;;;;;6214377;23;20373;-68
2023/05/09 08:38:23;;;;;;;1.88;0.85;;;18.80;76.30;;;;;;6215724;23;20001;-68
2023/05/09 08:40:48;;;;;;;2.38;0.98;;;18.80;76.30;;;;;;6214432;23;20403;-68
2023/05/09 08:43:15;;;;;;;1.15;0.75;;;18.80;77.30;;;;;;6213717;23;20032;-68
2023/05/09 08:45:46;;;;;;;1.80;1.00;;;18.80;76.30;;;;;;6215841;23;20462;-68
2023/05/09 08:48:15;;;;;;;1.95;1.30;;;18.80;76.30;;;;;;6190247;23;19997;-69
2023/05/09 08:50:42;;;;;;;2.42;1.00;;;18.80;76.30;;;;;;6214301;23;20009;-68
2023/05/09 08:53:07;;;;;;;2.13;0.90;;;18.80;76.30;;;;;;6189131;23;20449;-68
2023/05/09 08:55:33;;;;;;;1.15;0.80;;;18.80;76.30;;;;;;6214160;23;20000;-68
2023/05/09 08:57:58;;;;;;;1.05;0.95;;;18.70;76.20;;;;;;6213737;23;20000;-68
2023/05/09 09:00:25;;;;;;;1.83;1.02;;;18.80;76.30;;;;;;6188991;23;20012;-68
2023/05/09 09:02:51;;;;;;;1.95;1.00;;;18.80;76.30;;;;;;6215640;23;20028;-68
2023/05/09 09:05:17;;;;;;;1.45;0.98;;;18.80;76.30;;;;;;6188890;23;20133;-68
2023/05/09 09:07:43;;;;;;;1.60;0.90;;;18.70;76.20;;;;;;6215489;23;20436;-68
2023/05/09 09:10:09;;;;;;;1.35;0.80;;;18.70;76.20;;;;;;6214028;23;20009;-68
2023/05/09 09:12:34;;;;;;;1.55;0.90;;;18.70;76.20;;;;;;6213557;23;20004;-68
2023/05/09 09:15:03;;;;;;;2.90;0.90;;;18.70;76.20;;;;;;6188903;23;20115;-68
2023/05/09 09:17:29;;;;;;;1.83;0.93;;;18.70;76.20;;;;;;6189101;23;20064;-68
2023/05/09 09:19:58;;;;;;;1.83;0.90;;;18.70;76.20;;;;;;6213826;23;20031;-68
2023/05/09 09:22:24;;;;;;;2.38;0.70;;;18.70;76.20;;;;;;6213836;23;20008;-68
2023/05/09 09:24:49;;;;;;;0.70;0.70;;;18.70;76.20;;;;;;6214094;23;20004;-68
2023/05/09 09:27:15;;;;;;;0.82;0.65;;;18.70;76.20;;;;;;6213432;23;20020;-68
2023/05/09 09:29:41;;;;;;;2.05;1.10;;;18.70;76.20;;;;;;6215354;23;20004;-68
2023/05/09 09:32:07;;;;;;;1.20;0.90;;;18.70;76.20;;;;;;6213846;23;20004;-68
2023/05/09 09:34:32;;;;;;;0.85;0.80;;;18.70;76.30;;;;;;6213897;23;20001;-68
2023/05/09 09:36:58;;;;;;;1.55;0.77;;;18.70;76.20;;;;;;6215390;23;20429;-69
2023/05/09 09:39:24;;;;;;;1.45;1.00;;;18.70;76.20;;;;;;6213295;23;20011;-68
2023/05/09 09:41:49;;;;;;;1.63;0.95;;;18.70;76.20;;;;;;6214842;23;20191;-68
2023/05/09 09:44:19;;;;;;;1.23;0.70;;;18.70;76.20;;;;;;6213776;23;20039;-68
2023/05/09 09:46:52;;;;;;;1.58;1.00;;;18.70;76.20;;;;;;6189022;23;20021;-68
2023/05/09 09:49:19;;;;;;;1.42;0.88;;;18.70;76.20;;;;;;6215048;23;20011;-68
2023/05/09 09:51:55;;;;;;;0.95;0.80;;;18.70;76.20;;;;;;6214881;23;20513;-68
2023/05/09 09:54:21;;;;;;;2.90;1.00;;;18.70;76.20;;;;;;6215112;23;20079;-68
2023/05/09 09:56:53;;;;;;;1.95;0.85;;;18.70;76.20;;;;;;6188602;23;20032;-68
2023/05/09 09:59:25;;;;;;;1.35;1.00;;;18.70;76.20;;;;;;6214871;23;20341;-68
2023/05/09 10:02:03;;;;;;;0.95;0.75;;;18.70;76.20;;;;;;6188569;23;20005;-68
2023/05/09 10:04:30;;;;;;;3.08;0.88;;;18.70;76.20;;;;;;6213414;23;20011;-68
2023/05/09 10:07:02;;;;;;;1.08;0.90;;;18.70;76.20;;;;;;6215034;23;20012;-68
2023/05/09 10:09:28;;;;;;;1.75;1.23;;;18.70;77.20;;;;;;6213582;23;20028;-68
2023/05/09 10:11:54;;;;;;;1.20;1.00;;;18.70;76.20;;;;;;6213303;23;20051;-68
2023/05/09 10:14:24;;;;;;;1.75;0.77;;;18.70;76.20;;;;;;6214835;23;20158;-68
2023/05/09 10:16:53;;;;;;;2.03;0.95;;;18.70;76.20;;;;;;6189170;23;20082;-68
2023/05/09 10:19:21;;;;;;;2.15;0.80;;;18.70;76.20;;;;;;6213247;23;20004;-68
2023/05/09 10:21:55;;;;;;;1.38;0.90;;;18.70;76.20;;;;;;6214793;23;19997;-68
2023/05/09 10:24:27;;;;;;;2.13;0.90;;;18.60;76.20;;;;;;6188988;23;20011;-68
2023/05/09 10:26:55;;;;;;;;;;;18.70;76.30;;;;;;6215231;23;20094;-68
2023/05/09 10:29:22;;;;;;;2.50;0.80;;;18.70;77.20;;;;;;6214740;23;20252;-68
2023/05/09 10:31:48;;;;;;;1.95;1.00;;;18.60;76.20;;;;;;6213254;23;20011;-68
2023/05/09 10:34:14;;;;;;;0.80;0.80;;;18.60;76.20;;;;;;6188412;23;20497;-68
2023/05/09 10:36:40;;;;;;;0.82;0.70;;;18.60;76.20;;;;;;6213313;23;20005;-68
2023/05/09 10:39:05;;;;;;;0.90;0.70;;;18.70;76.20;;;;;;6188112;23;20063;-68
2023/05/09 10:41:31;;;;;;;0.90;0.73;;;18.60;76.20;;;;;;6188045;23;20004;-68
2023/05/09 10:43:58;;;;;;;1.35;0.95;;;18.60;76.20;;;;;;6213564;23;20345;-68
2023/05/09 10:46:23;;;;;;;1.30;1.10;;;18.70;76.20;;;;;;6213271;23;20001;-68
2023/05/09 10:48:49;;;;;;;1.20;1.00;;;18.70;76.20;;;;;;6213384;23;20011;-68
2023/05/09 10:51:15;;;;;;;1.35;0.82;;;18.60;76.20;;;;;;6188770;23;20008;-68
2023/05/09 10:53:44;;;;;;;0.88;0.60;;;18.60;76.10;;;;;;6215421;23;20032;-68
2023/05/09 10:56:27;;;;;;;0.98;0.80;;;18.60;76.10;;;;;;6215319;23;20001;-68
2023/05/09 10:58:53;;;;;;;1.05;0.90;;;18.60;76.10;;;;;;6216617;23;20047;-68
2023/05/09 11:01:33;;;;;;;0.77;0.70;;;18.60;76.20;;;;;;6190023;23;20001;-68
2023/05/09 11:04:00;;;;;;;1.48;0.70;;;18.60;76.20;;;;;;6216723;23;20003;-68
2023/05/09 11:06:44;;;;;;;1.13;0.90;;;18.60;76.20;;;;;;6215012;23;20019;-68
2023/05/09 11:09:32;;;;;;;0.80;0.80;;;18.60;76.20;;;;;;6216279;23;20012;-68
2023/05/09 11:12:00;;;;;;;1.48;0.95;;;18.60;76.20;;;;;;6215035;23;20378;-68
2023/05/09 11:14:41;;;;;;;0.80;0.70;;;18.60;76.20;;;;;;6216359;23;20000;-68
2023/05/09 11:17:22;;;;;;;1.10;0.70;;;18.60;76.20;;;;;;6216522;23;20072;-68
2023/05/09 11:19:51;;;;;;;1.05;0.90;;;18.60;76.20;;;;;;6216493;23;20000;-68
2023/05/09 11:22:21;;;;;;;1.17;0.75;;;18.60;76.20;;;;;;6216549;23;20004;-68
2023/05/09 11:24:48;;;;;;;1.10;0.75;;;18.60;76.20;;;;;;6214998;23;20001;-68
2023/05/09 11:27:25;;;;;;;1.25;0.85;;;18.60;76.20;;;;;;6189855;23;20003;-68
2023/05/09 11:29:58;;;;;;;0.70;0.65;;;18.60;76.20;;;;;;6216464;23;20455;-68
2023/05/09 11:32:29;;;;;;;0.80;0.80;;;18.60;76.20;;;;;;6216674;23;20008;-68
2023/05/09 11:35:11;;;;;;;0.60;0.60;;;18.60;76.30;;;;;;6215080;23;20005;-68
2023/05/09 11:37:46;;;;;;;1.42;0.82;;;18.60;76.10;;;;;;6216232;23;20019;-68
2023/05/09 11:40:13;;;;;;;1.35;0.80;;;18.60;76.20;;;;;;6216150;23;20083;-68
2023/05/09 11:42:43;;;;;;;0.82;0.80;;;18.50;76.10;;;;;;6214743;23;20001;-69
2023/05/09 11:45:10;;;;;;;1.75;0.80;;;18.60;76.20;;;;;;6216309;23;20000;-68
2023/05/09 11:47:36;;;;;;;0.77;0.77;;;18.50;76.10;;;;;;6214871;23;20004;-68
2023/05/09 11:50:04;;;;;;;0.68;0.60;;;18.50;76.10;;;;;;6216429;23;20011;-68
2023/05/09 11:52:31;;;;;;;1.58;0.60;;;18.60;76.20;;;;;;6215722;23;20441;-68
2023/05/09 11:54:57;;;;;;;1.23;0.73;;;18.60;76.20;;;;;;6189928;23;20015;-68
2023/05/09 11:57:23;;;;;;;0.60;0.60;;;18.50;76.10;;;;;;6189845;23;20008;-68
2023/05/09 11:59:48;;;;;;;1.05;0.63;;;18.50;76.10;;;;;;6214473;23;20000;-68
2023/05/09 12:02:14;;;;;;;2.45;0.82;;;18.60;76.20;;;;;;6215953;23;20000;-68
2023/05/09 12:04:40;;;;;;;1.48;0.73;;;18.50;76.10;;;;;;6189615;23;20340;-68
2023/05/09 12:07:05;;;;;;;0.80;0.52;;;18.50;76.10;;;;;;6215685;23;20008;-68
2023/05/09 12:09:32;;;;;;;0.90;0.80;;;18.50;76.10;;;;;;6216031;23;20567;-68
2023/05/09 12:12:01;;;;;;;0.57;0.57;;;18.60;76.20;;;;;;6216040;23;20005;-68
2023/05/09 12:14:28;;;;;;;0.82;0.70;;;18.50;76.20;;;;;;6214153;23;20353;-68
2023/05/09 12:16:54;;;;;;;1.02;0.73;;;18.50;76.10;;;;;;6216046;23;20000;-68
2023/05/09 12:19:20;;;;;;;0.60;0.52;;;18.50;76.10;;;;;;6215836;23;20011;-68
2023/05/09 12:21:45;;;;;;;0.98;0.57;;;18.50;76.10;;;;;;6189158;23;20333;-68
2023/05/09 12:24:11;;;;;;;0.70;0.52;;;18.50;76.10;;;;;;6216072;23;20004;-68
2023/05/09 12:26:36;;;;;;;0.65;0.60;;;18.50;76.10;;;;;;6215695;23;20051;-68
2023/05/09 12:29:02;;;;;;;0.95;0.73;;;18.50;76.10;;;;;;6189441;23;20062;-68
2023/05/09 12:31:28;;;;;;;0.88;0.60;;;18.50;76.20;;;;;;6214430;23;20028;-68
2023/05/09 12:33:53;;;;;;;0.73;0.73;;;18.50;76.20;;;;;;6214360;23;20448;-68
2023/05/09 12:36:19;;;;;;;1.20;0.70;;;18.50;76.10;;;;;;6213883;23;20001;-68
2023/05/09 12:39:09;;;;;;;0.70;0.70;;;18.50;76.10;;;;;;6214155;23;20008;-68
2023/05/09 12:41:43;;;;;;;1.55;0.70;;;18.50;76.20;;;;;;6214347;23;20003;-68
2023/05/09 12:44:09;;;;;;;0.60;0.60;;;18.50;76.20;;;;;;6214473;23;19996;-68
2023/05/09 12:46:35;;;;;;;1.60;0.80;;;18.50;76.20;;;;;;6189349;23;20433;-68